Time;durP1;ratioP1;P1;durP2;ratioP2;P2;SDS_P1;SDS_P2;PMS_P1;PMS_P2;Temp;Humidity;BMP_temperature;BMP_pressure;BME280_temperature;BME280_humidity;BME280_pressure;Samples;Min_cycle;Max_cycle;Signal;HPM_P1;HPM_P2
2022/04/08 00:01:35;;;;;;;44.28;18.45;;;;;;;;;;5052059;28;20216;-70
2022/04/08 00:04:02;;;;;;;41.78;18.83;;;;;;;;;;5070876;28;20789;-70
2022/04/08 00:06:30;;;;;;;44.65;18.02;;;;;;;;;;5071018;28;20681;-70
2022/04/08 00:08:59;;;;;;;37.30;18.30;;;;;;;;;;5071039;28;20303;-70
2022/04/08 00:11:26;;;;;;;38.67;17.23;;;;;;;;;;5071020;28;20704;-70
2022/04/08 00:13:54;;;;;;;55.42;19.27;;;;;;;;;;5071026;28;20867;-70
2022/04/08 00:16:22;;;;;;;53.15;19.73;;;;;;;;;;5071104;28;20295;-70
2022/04/08 00:18:50;;;;;;;39.83;17.83;;;;;;;;;;5070980;28;20291;-70
2022/04/08 00:21:18;;;;;;;32.85;16.90;;;;;;;;;;5070803;28;20227;-70
2022/04/08 00:23:45;;;;;;;50.65;17.40;;;;;;;;;;5071105;28;20215;-70
2022/04/08 00:26:14;;;;;;;40.35;16.45;;;;;;;;;;5058587;28;20588;-70
2022/04/08 00:28:41;;;;;;;43.10;16.25;;;;;;;;;;5051794;28;20209;-70
2022/04/08 00:31:09;;;;;;;38.25;17.52;;;;;;;;;;5051979;28;20300;-70
2022/04/08 00:33:36;;;;;;;41.33;16.08;;;;;;;;;;5051467;28;20232;-70
2022/04/08 00:36:04;;;;;;;55.40;16.45;;;;;;;;;;5051453;28;20212;-70
2022/04/08 00:38:32;;;;;;;37.05;15.75;;;;;;;;;;5051906;28;20602;-70
2022/04/08 00:41:00;;;;;;;36.70;16.40;;;;;;;;;;5051536;28;20605;-70
2022/04/08 00:43:35;;;;;;;47.67;18.15;;;;;;;;;;5051477;28;20216;-70
2022/04/08 00:46:02;;;;;;;51.72;17.80;;;;;;;;;;5051283;28;20211;-70
2022/04/08 00:48:30;;;;;;;47.42;17.50;;;;;;;;;;5044810;28;20300;-70
2022/04/08 00:50:58;;;;;;;39.97;16.13;;;;;;;;;;5051523;28;20209;-70
2022/04/08 00:53:26;;;;;;;34.80;15.88;;;;;;;;;;5051510;28;20208;-70
2022/04/08 00:55:54;;;;;;;48.20;18.90;;;;;;;;;;5051346;28;20315;-70
2022/04/08 00:58:21;;;;;;;45.65;17.45;;;;;;;;;;5051500;28;20204;-70
2022/04/08 01:00:50;;;;;;;40.03;16.27;;;;;;;;;;5051334;28;20211;-70
2022/04/08 01:03:17;;;;;;;40.75;17.15;;;;;;;;;;5051579;28;20237;-70
2022/04/08 01:05:45;;;;;;;53.20;18.77;;;;;;;;;;5055468;28;20233;-70
2022/04/08 01:08:14;;;;;;;40.17;16.60;;;;;;;;;;5055309;28;20216;-70
2022/04/08 01:10:42;;;;;;;47.58;17.48;;;;;;;;;;5074477;28;20652;-70
2022/04/08 01:13:10;;;;;;;37.30;16.17;;;;;;;;;;5074115;28;20209;-70
2022/04/08 01:15:37;;;;;;;41.30;17.33;;;;;;;;;;5074395;28;20263;-70
2022/04/08 01:18:06;;;;;;;41.83;16.52;;;;;;;;;;5073870;28;20207;-70
2022/04/08 01:20:34;;;;;;;38.13;15.30;;;;;;;;;;5074203;28;20212;-70
2022/04/08 01:23:02;;;;;;;38.90;16.30;;;;;;;;;;5073963;28;20666;-70
2022/04/08 01:25:31;;;;;;;41.55;15.80;;;;;;;;;;5074088;28;20319;-70
2022/04/08 01:28:00;;;;;;;45.92;16.35;;;;;;;;;;5073621;28;20656;-70
2022/04/08 01:30:27;;;;;;;50.92;17.70;;;;;;;;;;5074311;28;20208;-70
2022/04/08 01:32:55;;;;;;;38.13;15.60;;;;;;;;;;5074149;28;20308;-70
2022/04/08 01:35:22;;;;;;;35.92;14.30;;;;;;;;;;5073813;28;20228;-70
2022/04/08 01:37:49;;;;;;;36.55;16.02;;;;;;;;;;5073633;28;20254;-70
2022/04/08 01:40:17;;;;;;;36.88;15.80;;;;;;;;;;5073625;28;20681;-70
2022/04/08 01:42:46;;;;;;;47.65;18.48;;;;;;;;;;5073893;28;20205;-70
2022/04/08 01:45:14;;;;;;;36.42;14.30;;;;;;;;;;5073602;28;20220;-70
2022/04/08 01:47:42;;;;;;;35.45;14.70;;;;;;;;;;5073559;28;20200;-71
2022/04/08 01:50:09;;;;;;;33.08;14.88;;;;;;;;;;5073646;28;20211;-70
2022/04/08 01:52:37;;;;;;;32.22;14.20;;;;;;;;;;5047522;28;20209;-70
2022/04/08 01:55:05;;;;;;;43.03;16.60;;;;;;;;;;5054038;28;20240;-70
2022/04/08 01:57:33;;;;;;;35.53;15.35;;;;;;;;;;5054201;28;20663;-70
2022/04/08 02:00:03;;;;;;;36.22;14.57;;;;;;;;;;5053958;28;20237;-70
2022/04/08 02:02:31;;;;;;;41.20;15.73;;;;;;;;;;5054313;28;20232;-70
2022/04/08 02:04:58;;;;;;;37.25;14.10;;;;;;;;;;5054103;28;20671;-70
2022/04/08 02:07:26;;;;;;;36.13;13.70;;;;;;;;;;5062116;28;20241;-70
2022/04/08 02:09:54;;;;;;;43.47;15.93;;;;;;;;;;5072980;28;20296;-70
2022/04/08 02:12:22;;;;;;;41.35;15.50;;;;;;;;;;5073910;28;20204;-70
2022/04/08 02:14:49;;;;;;;35.90;14.23;;;;;;;;;;5053924;28;20332;-70
2022/04/08 02:17:18;;;;;;;36.65;16.05;;;;;;;;;;5053230;28;20209;-70
2022/04/08 02:19:46;;;;;;;36.90;15.10;;;;;;;;;;5071395;28;20212;-70
2022/04/08 02:22:14;;;;;;;38.90;14.60;;;;;;;;;;5072951;28;20666;-70
2022/04/08 02:24:41;;;;;;;29.02;13.63;;;;;;;;;;5073210;28;20213;-70
2022/04/08 02:27:08;;;;;;;36.47;16.17;;;;;;;;;;5072851;28;20689;-70
2022/04/08 02:29:36;;;;;;;33.13;14.55;;;;;;;;;;5072939;28;20209;-70
2022/04/08 02:32:04;;;;;;;36.65;15.00;;;;;;;;;;5072766;28;20205;-70
2022/04/08 02:34:36;;;;;;;49.67;16.15;;;;;;;;;;5046671;28;20587;-70
2022/04/08 02:37:04;;;;;;;35.03;13.48;;;;;;;;;;5053494;28;20209;-70
2022/04/08 02:39:32;;;;;;;34.80;12.40;;;;;;;;;;5053488;28;20213;-70
2022/04/08 02:41:59;;;;;;;35.67;14.05;;;;;;;;;;5053494;28;20245;-70
2022/04/08 02:44:30;;;;;;;32.53;12.13;;;;;;;;;;5053478;28;20205;-70
2022/04/08 02:46:58;;;;;;;35.85;13.50;;;;;;;;;;5053393;28;20219;-70
2022/04/08 02:49:25;;;;;;;34.58;14.07;;;;;;;;;;5053722;28;20650;-70
2022/04/08 02:51:54;;;;;;;42.83;15.52;;;;;;;;;;5053091;28;20208;-70
2022/04/08 02:54:23;;;;;;;38.67;12.05;;;;;;;;;;5053218;28;20243;-70
2022/04/08 02:56:51;;;;;;;31.90;12.82;;;;;;;;;;5053219;28;20241;-70
2022/04/08 02:59:18;;;;;;;29.58;10.93;;;;;;;;;;5046176;28;20205;-70
2022/04/08 03:01:45;;;;;;;29.77;12.18;;;;;;;;;;5052722;28;20205;-70
2022/04/08 03:04:13;;;;;;;41.00;12.98;;;;;;;;;;5052846;28;20237;-70
2022/04/08 03:06:40;;;;;;;30.13;13.35;;;;;;;;;;5052929;28;20202;-70
2022/04/08 03:09:09;;;;;;;43.33;14.13;;;;;;;;;;5053017;28;20205;-70
2022/04/08 03:11:37;;;;;;;41.63;14.70;;;;;;;;;;5052984;28;20662;-70
2022/04/08 03:14:05;;;;;;;41.25;14.63;;;;;;;;;;5052492;28;20224;-70
2022/04/08 03:16:32;;;;;;;35.35;14.30;;;;;;;;;;5052646;28;20674;-70
2022/04/08 03:18:59;;;;;;;32.00;12.35;;;;;;;;;;5046440;28;20213;-70
2022/04/08 03:21:30;;;;;;;33.47;13.95;;;;;;;;;;5052879;28;20213;-70
2022/04/08 03:23:58;;;;;;;34.78;11.60;;;;;;;;;;5052579;28;20208;-70
2022/04/08 03:26:27;;;;;;;30.83;12.85;;;;;;;;;;5052491;28;20220;-70
2022/04/08 03:28:55;;;;;;;35.17;13.13;;;;;;;;;;5052885;28;20212;-70
2022/04/08 03:31:22;;;;;;;35.45;13.68;;;;;;;;;;5052558;28;20694;-70
2022/04/08 03:33:49;;;;;;;29.58;12.02;;;;;;;;;;5052264;28;20205;-70
2022/04/08 03:36:17;;;;;;;38.20;13.45;;;;;;;;;;5052359;28;20612;-70
2022/04/08 03:38:44;;;;;;;43.85;16.10;;;;;;;;;;5052230;28;20212;-70
2022/04/08 03:41:12;;;;;;;36.05;12.90;;;;;;;;;;5045455;28;20209;-70
2022/04/08 03:43:41;;;;;;;28.95;11.30;;;;;;;;;;5052523;28;20205;-70
2022/04/08 03:46:09;;;;;;;34.20;12.45;;;;;;;;;;5052489;28;20205;-70
2022/04/08 03:48:37;;;;;;;29.10;12.23;;;;;;;;;;5052251;28;20201;-70
2022/04/08 03:51:05;;;;;;;40.15;13.80;;;;;;;;;;5052237;28;20289;-70
2022/04/08 03:53:32;;;;;;;31.05;11.90;;;;;;;;;;5052165;28;20201;-70
2022/04/08 03:56:01;;;;;;;40.47;13.13;;;;;;;;;;5052030;28;20237;-70
2022/04/08 03:58:28;;;;;;;28.15;10.80;;;;;;;;;;5052327;28;20205;-70
2022/04/08 04:00:58;;;;;;;25.50;10.20;;;;;;;;;;5051990;28;20693;-69
2022/04/08 04:03:25;;;;;;;35.00;13.45;;;;;;;;;;5045302;28;20241;-69
2022/04/08 04:05:53;;;;;;;37.85;13.88;;;;;;;;;;5051840;28;20205;-70
2022/04/08 04:08:22;;;;;;;34.28;13.05;;;;;;;;;;5051873;28;20213;-71
2022/04/08 04:10:49;;;;;;;29.33;11.15;;;;;;;;;;5051904;28;20211;-70
2022/04/08 04:13:17;;;;;;;28.38;10.68;;;;;;;;;;5051912;28;20237;-70
2022/04/08 04:15:44;;;;;;;35.10;12.20;;;;;;;;;;5051529;28;20283;-71
2022/04/08 04:18:13;;;;;;;41.20;12.20;;;;;;;;;;5051968;28;20292;-70
2022/04/08 04:20:41;;;;;;;28.63;11.43;;;;;;;;;;5051711;28;20205;-70
2022/04/08 04:23:08;;;;;;;34.33;10.85;;;;;;;;;;5051705;28;20206;-69
2022/04/08 04:25:36;;;;;;;28.60;10.85;;;;;;;;;;5051769;28;20704;-70
2022/04/08 04:28:04;;;;;;;24.27;9.95;;;;;;;;;;5051523;28;20600;-70
2022/04/08 04:30:33;;;;;;;26.60;10.38;;;;;;;;;;5052144;28;20233;-70
2022/04/08 04:33:00;;;;;;;25.02;8.73;;;;;;;;;;5051808;28;20209;-71
2022/04/08 04:35:30;;;;;;;37.67;11.05;;;;;;;;;;5051619;28;20265;-70
2022/04/08 04:37:58;;;;;;;34.55;10.63;;;;;;;;;;5051442;28;20205;-71
2022/04/08 04:40:26;;;;;;;24.17;8.77;;;;;;;;;;5055180;28;20209;-71
2022/04/08 04:42:53;;;;;;;25.95;8.20;;;;;;;;;;5055692;28;20242;-71
2022/04/08 04:45:21;;;;;;;21.87;8.27;;;;;;;;;;5055770;28;20237;-69
2022/04/08 04:47:48;;;;;;;34.47;9.00;;;;;;;;;;5055333;28;20453;-70
2022/04/08 04:50:15;;;;;;;22.37;7.93;;;;;;;;;;5055855;28;20449;-69
2022/04/08 04:52:45;;;;;;;19.47;7.17;;;;;;;;;;5055525;28;20450;-69
2022/04/08 04:55:12;;;;;;;21.63;7.23;;;;;;;;;;5055538;28;20497;-70
2022/04/08 04:57:40;;;;;;;21.17;7.07;;;;;;;;;;5055400;28;20948;-70
2022/04/08 05:00:09;;;;;;;33.00;8.80;;;;;;;;;;5055701;28;20501;-70
2022/04/08 05:02:37;;;;;;;22.80;7.37;;;;;;;;;;5055673;28;20479;-69
2022/04/08 05:05:06;;;;;;;20.73;6.10;;;;;;;;;;5055669;28;20462;-70
2022/04/08 05:07:33;;;;;;;27.83;6.70;;;;;;;;;;5048722;28;20872;-70
2022/04/08 05:10:04;;;;;;;27.53;6.17;;;;;;;;;;5055051;28;20451;-70
2022/04/08 05:12:32;;;;;;;19.60;5.10;;;;;;;;;;5055558;28;20479;-70
2022/04/08 05:14:59;;;;;;;20.80;6.07;;;;;;;;;;5054913;28;20847;-70
2022/04/08 05:17:28;;;;;;;15.90;4.80;;;;;;;;;;5055273;28;20466;-70
2022/04/08 05:19:56;;;;;;;29.83;7.60;;;;;;;;;;5055002;28;20939;-71
2022/04/08 05:22:23;;;;;;;22.33;4.97;;;;;;;;;;5055234;28;20436;-72
2022/04/08 05:24:51;;;;;;;20.73;5.37;;;;;;;;;;5055005;28;20466;-72
2022/04/08 05:27:20;;;;;;;17.57;4.83;;;;;;;;;;5055018;28;20538;-73
2022/04/08 05:29:48;;;;;;;25.43;7.10;;;;;;;;;;5073944;28;20968;-72
2022/04/08 05:32:15;;;;;;;27.53;5.70;;;;;;;;;;5073880;28;20453;-72
2022/04/08 05:34:42;;;;;;;19.50;5.40;;;;;;;;;;5073830;28;20957;-72
2022/04/08 05:37:12;;;;;;;21.87;5.90;;;;;;;;;;5073773;28;20451;-72
2022/04/08 05:39:39;;;;;;;16.83;5.10;;;;;;;;;;5073702;28;21044;-72
2022/04/08 05:42:07;;;;;;;17.57;4.93;;;;;;;;;;5073601;28;20971;-72
2022/04/08 05:44:36;;;;;;;24.40;5.80;;;;;;;;;;5074081;28;20541;-72
2022/04/08 05:47:04;;;;;;;23.47;5.03;;;;;;;;;;5073898;28;20450;-72
2022/04/08 05:49:31;;;;;;;19.17;5.63;;;;;;;;;;5073651;28;20446;-72
2022/04/08 05:51:59;;;;;;;21.60;5.70;;;;;;;;;;5072292;28;20526;-73
2022/04/08 05:54:26;;;;;;;19.90;5.73;;;;;;;;;;5073339;28;20468;-70
2022/04/08 05:56:53;;;;;;;21.33;5.80;;;;;;;;;;5073405;28;20482;-70
2022/04/08 05:59:21;;;;;;;18.00;4.73;;;;;;;;;;5073373;28;20459;-70
2022/04/08 06:01:50;;;;;;;22.43;5.23;;;;;;;;;;5073425;28;20477;-70
2022/04/08 06:04:17;;;;;;;23.73;6.30;;;;;;;;;;5073655;28;20811;-70
2022/04/08 06:06:45;;;;;;;24.73;6.00;;;;;;;;;;5073458;28;20998;-70
2022/04/08 06:09:12;;;;;;;22.20;5.97;;;;;;;;;;5073659;28;20458;-70
2022/04/08 06:11:42;;;;;;;16.30;5.03;;;;;;;;;;5047523;28;20472;-70
2022/04/08 06:14:09;;;;;;;18.93;5.00;;;;;;;;;;5054012;28;20471;-70
2022/04/08 06:16:37;;;;;;;20.27;5.40;;;;;;;;;;5053947;28;20541;-70
2022/04/08 06:19:06;;;;;;;17.30;5.10;;;;;;;;;;5053955;28;20454;-70
2022/04/08 06:21:33;;;;;;;22.87;6.07;;;;;;;;;;5053835;28;20458;-70
2022/04/08 06:24:01;;;;;;;17.07;5.10;;;;;;;;;;5053557;28;20451;-70
2022/04/08 06:26:28;;;;;;;26.63;6.70;;;;;;;;;;5053965;28;20479;-71
2022/04/08 06:28:56;;;;;;;18.73;6.10;;;;;;;;;;5053781;28;20448;-70
2022/04/08 06:31:24;;;;;;;15.00;4.40;;;;;;;;;;5053588;28;20447;-70
2022/04/08 06:33:52;;;;;;;25.23;6.20;;;;;;;;;;5072644;28;20451;-71
2022/04/08 06:36:21;;;;;;;18.27;5.80;;;;;;;;;;5072558;28;20493;-70
2022/04/08 06:38:49;;;;;;;20.33;5.37;;;;;;;;;;5072902;28;20832;-70
2022/04/08 06:41:16;;;;;;;18.97;5.57;;;;;;;;;;5072928;28;20447;-70
2022/04/08 06:43:44;;;;;;;22.93;5.17;;;;;;;;;;5072453;28;20446;-71
2022/04/08 06:46:11;;;;;;;19.90;5.33;;;;;;;;;;5072616;28;20469;-71
2022/04/08 06:48:39;;;;;;;19.33;5.43;;;;;;;;;;5072411;28;20520;-70
2022/04/08 06:51:06;;;;;;;18.97;5.50;;;;;;;;;;5072633;28;20447;-70
2022/04/08 06:53:36;;;;;;;19.30;4.97;;;;;;;;;;5046756;28;21058;-71
2022/04/08 06:56:05;;;;;;;17.80;5.27;;;;;;;;;;5053096;28;20487;-71
2022/04/08 06:58:38;;;;;;;21.70;6.90;;;;;;;;;;5053123;28;20462;-71
2022/04/08 07:01:07;;;;;;;17.83;5.97;;;;;;;;;;5053157;28;20443;-70
2022/04/08 07:03:34;;;;;;;19.03;5.60;;;;;;;;;;5053026;28;20471;-70
2022/04/08 07:06:03;;;;;;;19.03;5.70;;;;;;;;;;5053043;28;20459;-71
2022/04/08 07:08:31;;;;;;;20.03;6.13;;;;;;;;;;5053092;28;20443;-70
2022/04/08 07:11:00;;;;;;;17.53;4.90;;;;;;;;;;5053012;28;20482;-71
2022/04/08 07:13:28;;;;;;;22.10;5.47;;;;;;;;;;5052967;28;20451;-70
2022/04/08 07:15:55;;;;;;;23.40;5.97;;;;;;;;;;5052443;28;20487;-71
2022/04/08 07:18:22;;;;;;;18.07;4.70;;;;;;;;;;5046626;28;20455;-71
2022/04/08 07:20:50;;;;;;;24.50;5.27;;;;;;;;;;5052734;28;20452;-71
2022/04/08 07:23:17;;;;;;;19.07;5.53;;;;;;;;;;5052770;28;20435;-71
2022/04/08 07:25:45;;;;;;;23.37;6.00;;;;;;;;;;5052581;28;20522;-71
2022/04/08 07:28:14;;;;;;;19.00;5.03;;;;;;;;;;5052635;28;20475;-71
2022/04/08 07:30:42;;;;;;;16.57;4.63;;;;;;;;;;5052527;28;20447;-73
2022/04/08 07:33:09;;;;;;;17.80;4.47;;;;;;;;;;5052766;28;20455;-71
2022/04/08 07:35:39;;;;;;;19.07;4.97;;;;;;;;;;5052383;28;20453;-71
2022/04/08 07:38:06;;;;;;;20.50;5.00;;;;;;;;;;5052321;28;20870;-71
2022/04/08 07:40:34;;;;;;;18.77;5.33;;;;;;;;;;5071357;28;20475;-73
2022/04/08 07:43:01;;;;;;;17.23;3.80;;;;;;;;;;5071712;28;21018;-73
2022/04/08 07:45:30;;;;;;;17.37;4.23;;;;;;;;;;5071906;28;20489;-73
2022/04/08 07:47:59;;;;;;;24.07;5.23;;;;;;;;;;5071279;28;20478;-71
2022/04/08 07:50:27;;;;;;;16.03;3.83;;;;;;;;;;5071332;28;20442;-71
2022/04/08 07:52:55;;;;;;;18.43;4.63;;;;;;;;;;5071288;28;20815;-71
2022/04/08 07:55:24;;;;;;;22.23;5.27;;;;;;;;;;5071001;28;20467;-71
2022/04/08 07:57:52;;;;;;;22.77;5.27;;;;;;;;;;5070880;28;20521;-73
2022/04/08 08:00:20;;;;;;;17.60;3.77;;;;;;;;;;5071358;28;20443;-71
2022/04/08 08:02:49;;;;;;;21.40;4.80;;;;;;;;;;5071220;28;20509;-71
2022/04/08 08:05:18;;;;;;;18.63;4.33;;;;;;;;;;5071085;28;20443;-70
2022/04/08 08:07:46;;;;;;;26.93;5.50;;;;;;;;;;5070888;28;20447;-71
2022/04/08 08:10:16;;;;;;;16.83;4.00;;;;;;;;;;5071442;28;20447;-71
2022/04/08 08:12:43;;;;;;;16.13;3.77;;;;;;;;;;5071158;28;20516;-71
2022/04/08 08:15:11;;;;;;;22.40;4.60;;;;;;;;;;5070649;28;20453;-71
2022/04/08 08:17:39;;;;;;;15.90;3.33;;;;;;;;;;5070929;28;21010;-70
2022/04/08 08:20:09;;;;;;;16.87;3.70;;;;;;;;;;5070924;28;20455;-70
2022/04/08 08:22:37;;;;;;;19.07;4.30;;;;;;;;;;5071382;28;20795;-70
2022/04/08 08:25:06;;;;;;;22.20;4.27;;;;;;;;;;5045289;28;20450;-70
2022/04/08 08:27:38;;;;;;;17.00;3.77;;;;;;;;;;5051852;28;20454;-70
2022/04/08 08:30:07;;;;;;;15.37;3.33;;;;;;;;;;5051587;28;20949;-70
2022/04/08 08:32:34;;;;;;;23.10;4.47;;;;;;;;;;5051798;28;20452;-70
2022/04/08 08:35:01;;;;;;;17.07;2.97;;;;;;;;;;5051583;28;20448;-70
2022/04/08 08:37:30;;;;;;;20.60;3.70;;;;;;;;;;5051958;28;20577;-70
2022/04/08 08:40:00;;;;;;;23.30;5.00;;;;;;;;;;5051433;28;20448;-70
2022/04/08 08:42:27;;;;;;;15.90;3.47;;;;;;;;;;5051766;28;20463;-70
2022/04/08 08:44:55;;;;;;;17.80;3.70;;;;;;;;;;5051694;28;20442;-70
2022/04/08 08:47:23;;;;;;;20.40;4.10;;;;;;;;;;5051544;28;20483;-71
2022/04/08 08:49:51;;;;;;;31.60;6.60;;;;;;;;;;5051232;28;20971;-71
2022/04/08 08:52:19;;;;;;;16.37;4.03;;;;;;;;;;5051529;28;20590;-71
2022/04/08 08:54:49;;;;;;;17.13;3.30;;;;;;;;;;5051442;28;20885;-71
2022/04/08 08:57:17;;;;;;;16.40;3.37;;;;;;;;;;5051538;28;20490;-72
2022/04/08 08:59:45;;;;;;;22.63;4.87;;;;;;;;;;5051160;28;20999;-71
2022/04/08 09:02:13;;;;;;;18.00;4.33;;;;;;;;;;5051353;28;20485;-71
2022/04/08 09:04:42;;;;;;;16.50;3.70;;;;;;;;;;5051809;28;20456;-71
2022/04/08 09:07:10;;;;;;;17.93;4.07;;;;;;;;;;5051353;28;20510;-72
2022/04/08 09:09:39;;;;;;;17.30;4.00;;;;;;;;;;5051362;28;20456;-72
2022/04/08 09:12:15;;;;;;;17.90;3.97;;;;;;;;;;5057649;28;20457;-73
2022/04/08 09:14:46;;;;;;;17.83;4.10;;;;;;;;;;5045004;28;20541;-72
2022/04/08 09:17:13;;;;;;;21.07;6.00;;;;;;;;;;5070777;28;20562;-71
2022/04/08 09:19:41;;;;;;;16.87;3.47;;;;;;;;;;5070367;28;20457;-71
2022/04/08 09:22:11;;;;;;;30.87;5.70;;;;;;;;;;5070528;28;20822;-71
2022/04/08 09:24:39;;;;;;;14.73;3.17;;;;;;;;;;5071068;28;20833;-71
2022/04/08 09:27:06;;;;;;;16.90;3.50;;;;;;;;;;5074049;28;20997;-72
2022/04/08 09:29:36;;;;;;;19.43;4.63;;;;;;;;;;5074420;28;20496;-71
2022/04/08 09:32:10;;;;;;;16.83;3.90;;;;;;;;;;5073648;28;20449;-73
2022/04/08 09:34:38;;;;;;;20.43;4.83;;;;;;;;;;5074107;28;20518;-71
2022/04/08 09:37:11;;;;;;;23.93;5.33;;;;;;;;;;5073715;28;20555;-72
2022/04/08 09:39:39;;;;;;;17.33;3.63;;;;;;;;;;5073993;28;20442;-74
2022/04/08 09:42:08;;;;;;;15.13;3.40;;;;;;;;;;5073927;28;20449;-72
2022/04/08 09:44:42;;;;;;;16.90;3.70;;;;;;;;;;5048256;28;20872;-72
2022/04/08 09:47:11;;;;;;;15.33;3.20;;;;;;;;;;5068062;28;20538;-72
2022/04/08 09:49:38;;;;;;;19.23;3.90;;;;;;;;;;5054539;28;20447;-72
2022/04/08 09:52:08;;;;;;;26.30;4.90;;;;;;;;;;5054241;28;20450;-72
2022/04/08 09:54:37;;;;;;;16.10;3.43;;;;;;;;;;5054659;28;20844;-72
2022/04/08 09:57:05;;;;;;;15.17;2.73;;;;;;;;;;5057601;28;20486;-72
2022/04/08 09:59:33;;;;;;;18.30;2.77;;;;;;;;;;5073435;28;20453;-72
2022/04/08 10:02:03;;;;;;;14.60;2.70;;;;;;;;;;5073161;28;20905;-71
2022/04/08 10:04:33;;;;;;;16.83;3.00;;;;;;;;;;5073328;28;20449;-73
2022/04/08 10:07:00;;;;;;;14.33;2.67;;;;;;;;;;5073313;28;20959;-72
2022/04/08 10:09:28;;;;;;;19.77;2.70;;;;;;;;;;5073678;28;20947;-72
2022/04/08 10:12:00;;;;;;;22.67;3.50;;;;;;;;;;5072962;28;20465;-72
2022/04/08 10:14:36;;;;;;;15.57;2.60;;;;;;;;;;5073172;28;20447;-72
2022/04/08 10:17:05;;;;;;;15.73;2.70;;;;;;;;;;5073032;28;20485;-72
2022/04/08 10:19:33;;;;;;;22.00;3.17;;;;;;;;;;5073295;28;20526;-72
2022/04/08 10:22:01;;;;;;;18.63;3.43;;;;;;;;;;5073043;28;20439;-72
2022/04/08 10:24:29;;;;;;;23.47;4.10;;;;;;;;;;5072876;28;20923;-72
2022/04/08 10:26:57;;;;;;;16.40;3.27;;;;;;;;;;5073114;28;20454;-72
2022/04/08 10:29:24;;;;;;;18.30;3.50;;;;;;;;;;5072751;28;20508;-72
2022/04/08 10:31:59;;;;;;;26.30;4.83;;;;;;;;;;5072561;28;20820;-72
2022/04/08 10:34:29;;;;;;;14.30;2.57;;;;;;;;;;5072949;28;20449;-72
2022/04/08 10:36:57;;;;;;;15.73;2.57;;;;;;;;;;5072027;28;20479;-72
2022/04/08 10:39:24;;;;;;;17.33;3.20;;;;;;;;;;5072895;28;20531;-72
2022/04/08 10:41:52;;;;;;;26.37;4.60;;;;;;;;;;5072479;28;20478;-72
2022/04/08 10:44:31;;;;;;;20.23;3.20;;;;;;;;;;5072515;28;20455;-72
2022/04/08 10:47:00;;;;;;;13.80;2.57;;;;;;;;;;5072578;28;20442;-72
2022/04/08 10:49:29;;;;;;;13.70;2.33;;;;;;;;;;5072685;28;20446;-72
2022/04/08 10:51:57;;;;;;;26.30;4.43;;;;;;;;;;5072142;28;20443;-72
2022/04/08 10:54:34;;;;;;;18.03;2.80;;;;;;;;;;5055309;28;20471;-72
2022/04/08 10:57:02;;;;;;;14.03;2.50;;;;;;;;;;5053115;28;20828;-72
2022/04/08 10:59:30;;;;;;;20.03;3.50;;;;;;;;;;5053385;28;20459;-72
2022/04/08 11:02:00;;;;;;;25.43;4.40;;;;;;;;;;5053006;28;20451;-72
2022/04/08 11:04:30;;;;;;;18.30;3.03;;;;;;;;;;5053128;28;20444;-72
2022/04/08 11:06:59;;;;;;;16.87;2.63;;;;;;;;;;5052961;28;20983;-72
2022/04/08 11:09:27;;;;;;;14.80;2.80;;;;;;;;;;5053242;28;20445;-72
2022/04/08 11:11:54;;;;;;;23.33;4.17;;;;;;;;;;5052808;28;20451;-72
2022/04/08 11:14:22;;;;;;;17.30;3.03;;;;;;;;;;5052853;28;20448;-72
2022/04/08 11:16:51;;;;;;;20.47;3.27;;;;;;;;;;5052768;28;20446;-72
2022/04/08 11:19:20;;;;;;;19.13;3.93;;;;;;;;;;5052917;28;20455;-72
2022/04/08 11:21:51;;;;;;;19.60;3.40;;;;;;;;;;5052477;28;20455;-73
2022/04/08 11:24:20;;;;;;;18.10;3.17;;;;;;;;;;5053025;28;20531;-72
2022/04/08 11:26:50;;;;;;;18.53;3.37;;;;;;;;;;5052654;28;20448;-72
2022/04/08 11:29:19;;;;;;;16.83;3.40;;;;;;;;;;5052636;28;20472;-72
2022/04/08 11:31:47;;;;;;;18.30;2.87;;;;;;;;;;5052353;28;20449;-72
2022/04/08 11:34:14;;;;;;;19.90;4.03;;;;;;;;;;5052442;28;20466;-72
2022/04/08 11:36:42;;;;;;;14.00;2.50;;;;;;;;;;5052536;28;20451;-73
2022/04/08 11:39:11;;;;;;;23.67;4.47;;;;;;;;;;5052642;28;20486;-72
2022/04/08 11:41:40;;;;;;;14.23;2.60;;;;;;;;;;5052404;28;20467;-72
2022/04/08 11:44:09;;;;;;;14.00;2.47;;;;;;;;;;5052676;28;20440;-72
2022/04/08 11:46:36;;;;;;;20.30;3.30;;;;;;;;;;5052216;28;20444;-72
2022/04/08 11:49:07;;;;;;;14.80;2.50;;;;;;;;;;5051553;28;20524;-72
2022/04/08 11:51:34;;;;;;;22.77;3.20;;;;;;;;;;5052235;28;20462;-72
2022/04/08 11:54:04;;;;;;;20.57;3.90;;;;;;;;;;5051844;28;20463;-72
2022/04/08 11:56:33;;;;;;;17.23;3.30;;;;;;;;;;5052288;28;20433;-72
2022/04/08 11:59:02;;;;;;;13.77;2.53;;;;;;;;;;5051887;28;20489;-72
2022/04/08 12:01:33;;;;;;;19.10;3.20;;;;;;;;;;5071717;28;20962;-72
2022/04/08 12:04:01;;;;;;;21.00;4.07;;;;;;;;;;5071130;28;20477;-72
2022/04/08 12:06:36;;;;;;;20.13;3.70;;;;;;;;;;5071095;28;20960;-72
2022/04/08 12:09:03;;;;;;;12.60;2.17;;;;;;;;;;5071195;28;20446;-73
2022/04/08 12:11:36;;;;;;;20.50;3.27;;;;;;;;;;5071053;28;20470;-72
2022/04/08 12:14:08;;;;;;;16.30;2.83;;;;;;;;;;5071465;28;20446;-72
2022/04/08 12:16:36;;;;;;;21.93;4.17;;;;;;;;;;5071080;28;20538;-72
2022/04/08 12:19:03;;;;;;;16.80;2.73;;;;;;;;;;5071096;28;20565;-72
2022/04/08 12:21:31;;;;;;;22.10;3.03;;;;;;;;;;5071179;28;20824;-72
2022/04/08 12:24:00;;;;;;;23.80;3.97;;;;;;;;;;5070661;28;20449;-72
2022/04/08 12:26:28;;;;;;;14.27;2.30;;;;;;;;;;5071501;28;21039;-72
2022/04/08 12:29:10;;;;;;;16.57;2.73;;;;;;;;;;5071100;28;20447;-72
2022/04/08 12:31:45;;;;;;;17.27;3.27;;;;;;;;;;5071162;28;20911;-72
2022/04/08 12:34:14;;;;;;;22.03;3.40;;;;;;;;;;5071040;28;20463;-72
2022/04/08 12:36:42;;;;;;;13.13;2.20;;;;;;;;;;5070714;28;20899;-72
2022/04/08 12:39:11;;;;;;;16.00;2.53;;;;;;;;;;5071147;28;20910;-72
2022/04/08 12:41:39;;;;;;;22.60;3.30;;;;;;;;;;5070756;28;20447;-72
2022/04/08 12:44:07;;;;;;;15.40;2.37;;;;;;;;;;5071073;28;20446;-72
2022/04/08 12:46:36;;;;;;;18.50;3.17;;;;;;;;;;5070722;28;21023;-73
2022/04/08 12:49:04;;;;;;;14.40;2.70;;;;;;;;;;5070684;28;20453;-72
2022/04/08 12:51:31;;;;;;;18.23;3.50;;;;;;;;;;5070723;28;20517;-72
2022/04/08 12:53:59;;;;;;;19.23;3.40;;;;;;;;;;5070823;28;20471;-73
2022/04/08 12:56:27;;;;;;;16.17;2.57;;;;;;;;;;5070722;28;20529;-72
2022/04/08 12:58:54;;;;;;;17.33;2.97;;;;;;;;;;5070998;28;21011;-72
2022/04/08 13:01:22;;;;;;;18.00;2.40;;;;;;;;;;5074075;28;20521;-72
2022/04/08 13:03:51;;;;;;;17.10;3.90;;;;;;;;;;5074407;28;20486;-72
2022/04/08 13:06:19;;;;;;;15.47;2.93;;;;;;;;;;5074730;28;20827;-72
2022/04/08 13:08:46;;;;;;;21.87;2.73;;;;;;;;;;5074545;28;20431;-72
2022/04/08 13:11:14;;;;;;;20.17;3.43;;;;;;;;;;5074338;28;20458;-72
2022/04/08 13:13:41;;;;;;;16.40;3.20;;;;;;;;;;5074286;28;20478;-73
2022/04/08 13:16:09;;;;;;;22.10;3.73;;;;;;;;;;5074157;28;20443;-73
2022/04/08 13:18:36;;;;;;;16.57;3.07;;;;;;;;;;5074352;28;20521;-72
2022/04/08 13:21:05;;;;;;;22.13;2.50;;;;;;;;;;5074345;28;20451;-73
2022/04/08 13:23:35;;;;;;;17.70;2.90;;;;;;;;;;5074316;28;20454;-72
2022/04/08 13:26:02;;;;;;;13.60;2.30;;;;;;;;;;5073903;28;20475;-72
2022/04/08 13:28:30;;;;;;;16.90;2.60;;;;;;;;;;5074101;28;20476;-73
2022/04/08 13:30:57;;;;;;;19.40;2.73;;;;;;;;;;5074220;28;20923;-73
2022/04/08 13:33:25;;;;;;;15.07;3.00;;;;;;;;;;5074167;28;20472;-72
2022/04/08 13:35:56;;;;;;;25.30;4.80;;;;;;;;;;5073836;28;20443;-73
2022/04/08 13:38:26;;;;;;;23.80;2.93;;;;;;;;;;5073794;28;20999;-73
2022/04/08 13:40:54;;;;;;;19.77;3.03;;;;;;;;;;5073958;28;20447;-73
2022/04/08 13:43:21;;;;;;;21.33;2.50;;;;;;;;;;5073937;28;20883;-72
2022/04/08 13:45:49;;;;;;;24.90;3.93;;;;;;;;;;5073934;28;20449;-73
2022/04/08 13:48:17;;;;;;;21.67;3.33;;;;;;;;;;5073648;28;20482;-73
2022/04/08 13:50:44;;;;;;;15.13;2.53;;;;;;;;;;5073658;28;20967;-73
2022/04/08 13:53:11;;;;;;;15.60;2.50;;;;;;;;;;5073977;28;20482;-72
2022/04/08 13:55:41;;;;;;;14.93;2.63;;;;;;;;;;5073322;28;20477;-73
2022/04/08 13:58:08;;;;;;;18.53;3.30;;;;;;;;;;5073707;28;20489;-73
2022/04/08 14:00:36;;;;;;;14.87;2.67;;;;;;;;;;5073447;28;20545;-72
2022/04/08 14:03:04;;;;;;;17.87;2.57;;;;;;;;;;5073351;28;20481;-72
2022/04/08 14:05:31;;;;;;;16.27;2.60;;;;;;;;;;5073582;28;20504;-72
2022/04/08 14:07:59;;;;;;;21.67;3.60;;;;;;;;;;5073173;28;20457;-72
2022/04/08 14:10:27;;;;;;;18.13;3.00;;;;;;;;;;5073286;28;20839;-73
2022/04/08 14:12:57;;;;;;;14.60;2.33;;;;;;;;;;5072187;28;20526;-72
2022/04/08 14:15:25;;;;;;;18.93;3.17;;;;;;;;;;5073225;28;20446;-72
2022/04/08 14:17:52;;;;;;;24.20;3.90;;;;;;;;;;5073015;28;20630;-73
2022/04/08 14:20:20;;;;;;;14.43;2.50;;;;;;;;;;5073046;28;20461;-72
2022/04/08 14:22:47;;;;;;;14.10;2.10;;;;;;;;;;5073028;28;20443;-72
2022/04/08 14:25:15;;;;;;;18.17;2.73;;;;;;;;;;5073167;28;20445;-72
2022/04/08 14:27:42;;;;;;;18.47;2.43;;;;;;;;;;5047039;28;20446;-73
2022/04/08 14:30:12;;;;;;;15.70;2.70;;;;;;;;;;5053853;28;20467;-72
2022/04/08 14:32:40;;;;;;;16.57;2.73;;;;;;;;;;5053741;28;20779;-74